Time;durP1;ratioP1;P1;durP2;ratioP2;P2;SDS_P1;SDS_P2;PMS_P1;PMS_P2;Temp;Humidity;BMP_temperature;BMP_pressure;BME280_temperature;BME280_humidity;BME280_pressure;Samples;Min_cycle;Max_cycle;Signal;HPM_P1;HPM_P2
2022/09/22 00:00:03;;;;;;;;;;;;;;;;;;1029945;28;3595;-57
2022/09/22 00:00:34;;;;;;;;;;;;;;;;;;1029963;28;3989;-53
2022/09/22 00:01:25;;;;;;;;;;;;;;;;;;1027104;28;4133;-56
2022/09/22 00:01:55;;;;;;;;;;;;;;;;;;1027076;28;2414;-55
2022/09/22 00:02:26;;;;;;;;;;;;;;;;;;1027241;28;4044;-56
2022/09/22 00:02:59;;;;;;;;;;;;;;;;;;1028758;28;2223;-55
2022/09/22 00:03:30;;;;;;;;;;;;;;;;;;1029975;28;4091;-54
2022/09/22 00:04:03;;;;;;;;;;;;;;;;;;1030719;28;2219;-56
2022/09/22 00:04:33;;;;;;;;;;;;;;;;;;1028876;28;3878;-55
2022/09/22 00:05:03;;;;;;;;;;;;;;;;;;1029349;28;2962;-54
2022/09/22 00:05:34;;;;;;;;;;;;;;;;;;1029923;28;4150;-58
2022/09/22 00:06:06;;;;;;;;;;;;;;;;;;1030622;28;2303;-57
2022/09/22 00:06:38;;;;;;;;;;;;;;;;;;1029885;28;4020;-53
2022/09/22 00:07:08;;;;;;;;;;;;;;;;;;1028750;28;3199;-57
2022/09/22 00:07:38;;;;;;;;;;;;;;;;;;1028669;28;4028;-58
2022/09/22 00:08:09;;;;;;;;;;;;;;;;;;1028935;28;3205;-58
2022/09/22 00:08:41;;;;;;;;;;;;;;;;;;1029043;28;3783;-55
2022/09/22 00:09:12;;;;;;;;;;;;;;;;;;1030162;28;4088;-57
2022/09/22 00:09:42;;;;;;;;;;;;;;;;;;1027857;28;3156;-52
2022/09/22 00:10:14;;;;;;;;;;;;;;;;;;1030572;28;4077;-53
2022/09/22 00:10:44;;;;;;;;;;;;;;;;;;1029764;28;2984;-56
2022/09/22 00:11:16;;;;;;;;;;;;;;;;;;1029874;28;4098;-58
2022/09/22 00:11:48;;;;;;;;;;;;;;;;;;1029351;28;2222;-55
2022/09/22 00:12:18;;;;;;;;;;;;;;;;;;1030019;28;4079;-57
2022/09/22 00:12:49;;;;;;;;;;;;;;;;;;1029631;28;2412;-57
2022/09/22 00:13:19;;;;;;;;;;;;;;;;;;1029566;28;3904;-52
2022/09/22 00:13:54;;;;;;;;;;;;;;;;;;1030062;28;3053;-56
2022/09/22 00:14:26;;;;;;;;;;;;;;;;;;1030394;28;4204;-58
2022/09/22 00:14:57;;;;;;;;;;;;;;;;;;1028910;28;2639;-56
2022/09/22 00:15:27;;;;;;;;;;;;;;;;;;1025052;28;3873;-59
2022/09/22 00:15:59;;;;;;;;;;;;;;;;;;1025388;28;2340;-60
2022/09/22 00:16:32;;;;;;;;;;;;;;;;;;1022681;28;3904;-57
2022/09/22 00:17:02;;;;;;;;;;;;;;;;;;1027003;28;2790;-56
2022/09/22 00:17:32;;;;;;;;;;;;;;;;;;1026231;28;4117;-58
2022/09/22 00:18:03;;;;;;;;;;;;;;;;;;1025909;28;2163;-56
2022/09/22 00:18:33;;;;;;;;;;;;;;;;;;1030545;28;3918;-56
2022/09/22 00:19:04;;;;;;;;;;;;;;;;;;1029821;28;2280;-56
2022/09/22 00:19:36;;;;;;;;;;;;;;;;;;1030542;28;3873;-54
2022/09/22 00:20:06;;;;;;;;;;;;;;;;;;1030862;28;3053;-53
2022/09/22 00:20:37;;;;;;;;;;;;;;;;;;1030342;28;4311;-56
2022/09/22 00:21:11;;;;;;;;;;;;;;;;;;1029835;28;2226;-57
2022/09/22 00:21:42;;;;;;;;;;;;;;;;;;1030494;28;3822;-59
2022/09/22 00:22:12;;;;;;;;;;;;;;;;;;1029317;28;4043;-55
2022/09/22 00:22:43;;;;;;;;;;;;;;;;;;1029689;28;3132;-56
2022/09/22 00:23:13;;;;;;;;;;;;;;;;;;1029834;28;3870;-55
2022/09/22 00:23:45;;;;;;;;;;;;;;;;;;1030625;28;1675;-56
2022/09/22 00:24:16;;;;;;;;;;;;;;;;;;1028979;28;3870;-58
2022/09/22 00:24:46;;;;;;;;;;;;;;;;;;1030657;28;1784;-55
2022/09/22 00:25:17;;;;;;;;;;;;;;;;;;1029816;28;4075;-55
2022/09/22 00:25:47;;;;;;;;;;;;;;;;;;1030465;28;2409;-57
2022/09/22 00:26:20;;;;;;;;;;;;;;;;;;1030787;28;3920;-58
2022/09/22 00:26:54;;;;;;;;;;;;;;;;;;1030124;28;2421;-57
2022/09/22 00:27:24;;;;;;;;;;;;;;;;;;1029549;28;4172;-56
2022/09/22 00:27:55;;;;;;;;;;;;;;;;;;1030455;28;2245;-58
2022/09/22 00:28:25;;;;;;;;;;;;;;;;;;1029765;28;4057;-56
2022/09/22 00:28:56;;;;;;;;;;;;;;;;;;1030259;28;2226;-57
2022/09/22 00:29:27;;;;;;;;;;;;;;;;;;1030346;28;4064;-56
2022/09/22 00:29:57;;;;;;;;;;;;;;;;;;1030177;28;2259;-56
2022/09/22 00:30:29;;;;;;;;;;;;;;;;;;1029588;28;3889;-58
2022/09/22 00:31:02;;;;;;;;;;;;;;;;;;1030163;28;2298;-56
2022/09/22 00:31:40;;;;;;;;;;;;;;;;;;1029523;28;4026;-55
2022/09/22 00:32:12;;;;;;;;;;;;;;;;;;1029513;28;3940;-56
2022/09/22 00:32:42;;;;;;;;;;;;;;;;;;1031042;28;1601;-58
2022/09/22 00:33:12;;;;;;;;;;;;;;;;;;1029694;28;4132;-53
2022/09/22 00:33:45;;;;;;;;;;;;;;;;;;1030145;28;2321;-56
2022/09/22 00:34:16;;;;;;;;;;;;;;;;;;1029670;28;3891;-56
2022/09/22 00:34:46;;;;;;;;;;;;;;;;;;1030286;28;3080;-58
2022/09/22 00:35:17;;;;;;;;;;;;;;;;;;1030358;28;4057;-56
2022/09/22 00:35:55;;;;;;;;;;;;;;;;;;1030495;28;1705;-55
2022/09/22 00:36:26;;;;;;;;;;;;;;;;;;1029212;28;4030;-56
2022/09/22 00:36:57;;;;;;;;;;;;;;;;;;1030064;28;2668;-55
2022/09/22 00:37:27;;;;;;;;;;;;;;;;;;1029153;28;4034;-51
2022/09/22 00:37:57;;;;;;;;;;;;;;;;;;1030984;28;1768;-59
2022/09/22 00:38:28;;;;;;;;;;;;;;;;;;1029600;28;4155;-57
2022/09/22 00:38:58;;;;;;;;;;;;;;;;;;1029727;28;3057;-55
2022/09/22 00:39:30;;;;;;;;;;;;;;;;;;1029395;28;3873;-55
2022/09/22 00:40:01;;;;;;;;;;;;;;;;;;1031166;28;1860;-58
2022/09/22 00:40:32;;;;;;;;;;;;;;;;;;1029608;28;4009;-55
2022/09/22 00:41:03;;;;;;;;;;;;;;;;;;1029972;28;1602;-52
2022/09/22 00:41:36;;;;;;;;;;;;;;;;;;1029415;28;3803;-57
2022/09/22 00:42:08;;;;;;;;;;;;;;;;;;1030390;28;1691;-53
2022/09/22 00:42:38;;;;;;;;;;;;;;;;;;1028197;28;3869;-58
2022/09/22 00:43:16;;;;;;;;;;;;;;;;;;1031013;28;1573;-56
2022/09/22 00:43:49;;;;;;;;;;;;;;;;;;1029444;28;3865;-52
2022/09/22 00:44:25;;;;;;;;;;;;;;;;;;1029260;28;4128;-58
2022/09/22 00:44:55;;;;;;;;;;;;;;;;;;1028885;28;3119;-58
2022/09/22 00:45:26;;;;;;;;;;;;;;;;;;1029816;28;5198;-56
2022/09/22 00:46:07;;;;;;;;;;;;;;;;;;1026671;28;3201;-58
2022/09/22 00:46:46;;;;;;;;;;;;;;;;;;1029781;28;4076;-59
2022/09/22 00:47:33;;;;;;;;;;;;;;;;;;1030353;28;3872;-55
2022/09/22 00:48:03;;;;;;;;;;;;;;;;;;1034216;28;2112;-56
2022/09/22 00:48:36;;;;;;;;;;;;;;;;;;1033038;28;4094;-53
2022/09/22 00:49:07;;;;;;;;;;;;;;;;;;1033965;28;1898;-55
2022/09/22 00:49:57;;;;;;;;;;;;;;;;;;1032731;28;3844;-60
2022/09/22 00:50:27;;;;;;;;;;;;;;;;;;1033154;28;4078;-53
2022/09/22 00:50:58;;;;;;;;;;;;;;;;;;1034540;28;3019;-55
2022/09/22 00:51:31;;;;;;;;;;;;;;;;;;1033324;28;4016;-58
2022/09/22 00:52:01;;;;;;;;;;;;;;;;;;1033106;28;3276;-58
2022/09/22 00:52:37;;;;;;;;;;;;;;;;;;1032822;28;3968;-56
2022/09/22 00:53:09;;;;;;;;;;;;;;;;;;1034302;28;2331;-56
2022/09/22 00:53:40;;;;;;;;;;;;;;;;;;1032966;28;3846;-59
2022/09/22 00:54:11;;;;;;;;;;;;;;;;;;1033765;28;4182;-55
2022/09/22 00:54:50;;;;;;;;;;;;;;;;;;1034755;28;3077;-56
2022/09/22 00:55:23;;;;;;;;;;;;;;;;;;1032991;28;4045;-58
2022/09/22 00:55:56;;;;;;;;;;;;;;;;;;1033531;28;2385;-57
2022/09/22 00:56:28;;;;;;;;;;;;;;;;;;1033302;28;4051;-56
2022/09/22 00:57:06;;;;;;;;;;;;;;;;;;1032274;28;3292;-52
2022/09/22 00:57:38;;;;;;;;;;;;;;;;;;1033257;28;4009;-57
2022/09/22 00:58:11;;;;;;;;;;;;;;;;;;1033230;28;2274;-56
2022/09/22 00:58:47;;;;;;;;;;;;;;;;;;1032342;28;3904;-58
2022/09/22 00:59:19;;;;;;;;;;;;;;;;;;1033011;28;4054;-58
2022/09/22 00:59:50;;;;;;;;;;;;;;;;;;1033276;28;1650;-54
2022/09/22 01:00:20;;;;;;;;;;;;;;;;;;1029650;28;4179;-53
2022/09/22 01:00:50;;;;;;;;;;;;;;;;;;1032080;28;2017;-60
2022/09/22 01:01:21;;;;;;;;;;;;;;;;;;1029562;28;4076;-56
2022/09/22 01:01:51;;;;;;;;;;;;;;;;;;1031136;28;1677;-56
2022/09/22 01:02:22;;;;;;;;;;;;;;;;;;1032638;28;4114;-56
2022/09/22 01:02:55;;;;;;;;;;;;;;;;;;1034484;28;1681;-57
2022/09/22 01:03:28;;;;;;;;;;;;;;;;;;1033924;28;4030;-59
2022/09/22 01:03:58;;;;;;;;;;;;;;;;;;1032531;28;1692;-58
2022/09/22 01:04:29;;;;;;;;;;;;;;;;;;1034158;28;3879;-59
2022/09/22 01:04:59;;;;;;;;;;;;;;;;;;1032681;28;1939;-56
2022/09/22 01:05:30;;;;;;;;;;;;;;;;;;1033275;28;4067;-57
2022/09/22 01:06:02;;;;;;;;;;;;;;;;;;1034244;28;1695;-57
2022/09/22 01:06:33;;;;;;;;;;;;;;;;;;1031870;28;4028;-60
2022/09/22 01:07:04;;;;;;;;;;;;;;;;;;1034210;28;1881;-58
2022/09/22 01:07:34;;;;;;;;;;;;;;;;;;1031867;28;3880;-59
2022/09/22 01:08:05;;;;;;;;;;;;;;;;;;1034687;28;1672;-57
2022/09/22 01:08:36;;;;;;;;;;;;;;;;;;1032757;28;4062;-57
2022/09/22 01:09:06;;;;;;;;;;;;;;;;;;1034121;28;1652;-57
2022/09/22 01:09:37;;;;;;;;;;;;;;;;;;1032078;28;4046;-57
2022/09/22 01:10:07;;;;;;;;;;;;;;;;;;1032882;28;2874;-55
2022/09/22 01:10:38;;;;;;;;;;;;;;;;;;1032202;28;9085;-60
2022/09/22 01:11:09;;;;;;;;;;;;;;;;;;1033410;28;2700;-59
2022/09/22 01:11:40;;;;;;;;;;;;;;;;;;1031932;28;3976;-58
2022/09/22 01:12:11;;;;;;;;;;;;;;;;;;1027114;28;4151;-58
2022/09/22 01:12:47;;;;;;;;;;;;;;;;;;1028351;28;3196;-57
2022/09/22 01:13:23;;;;;;;;;;;;;;;;;;1030863;28;4063;-59
2022/09/22 01:14:10;;;;;;;;;;;;;;;;;;1032040;28;3128;-57
2022/09/22 01:15:02;;;;;;;;;;;;;;;;;;1031910;28;3719;-54
2022/09/22 01:15:37;;;;;;;;;;;;;;;;;;1032839;28;3899;-60
2022/09/22 01:16:25;;;;;;;;;;;;;;;;;;1034083;28;2743;-58
2022/09/22 01:17:25;;;;;;;;;;;;;;;;;;1033233;28;3890;-60
2022/09/22 01:18:12;;;;;;;;;;;;;;;;;;1019872;29;3969;-57
2022/09/22 01:18:42;;;;;;;;;;;;;;;;;;1018069;29;3665;-58
2022/09/22 01:19:33;;;;;;;;;;;;;;;;;;1020486;28;4096;-57
2022/09/22 01:20:24;;;;;;;;;;;;;;;;;;1033281;28;1706;-61
2022/09/22 01:21:06;;;;;;;;;;;;;;;;;;1030310;28;3856;-58
2022/09/22 01:21:46;;;;;;;;;;;;;;;;;;1031126;28;4046;-57
2022/09/22 01:22:39;;;;;;;;;;;;;;;;;;1030989;28;4259;-55
2022/09/22 01:23:19;;;;;;;;;;;;;;;;;;1024312;28;3911;-58
2022/09/22 01:23:49;;;;;;;;;;;;;;;;;;1033391;28;2376;-56
2022/09/22 01:24:22;;;;;;;;;;;;;;;;;;1032654;28;4120;-58
2022/09/22 01:25:01;;;;;;;;;;;;;;;;;;1032942;28;2695;-56
2022/09/22 01:25:38;;;;;;;;;;;;;;;;;;1032450;28;3991;-58
2022/09/22 01:26:19;;;;;;;;;;;;;;;;;;1033518;28;2779;-58
2022/09/22 01:27:00;;;;;;;;;;;;;;;;;;1034185;28;4004;-61
2022/09/22 01:27:49;;;;;;;;;;;;;;;;;;1032533;28;3810;-60
2022/09/22 01:28:43;;;;;;;;;;;;;;;;;;1032476;28;4082;-56
2022/09/22 01:29:45;;;;;;;;;;;;;;;;;;1033653;28;3946;-60
2022/09/22 01:30:16;;;;;;;;;;;;;;;;;;1022430;28;4095;-57
2022/09/22 01:30:46;;;;;;;;;;;;;;;;;;1022589;28;1728;-55
2022/09/22 01:31:35;;;;;;;;;;;;;;;;;;1027026;28;4094;-60
2022/09/22 01:32:05;;;;;;;;;;;;;;;;;;1033252;28;3091;-59
2022/09/22 01:32:41;;;;;;;;;;;;;;;;;;1031491;28;4131;-58
2022/09/22 01:33:35;;;;;;;;;;;;;;;;;;1033424;28;4035;-59
2022/09/22 01:34:08;;;;;;;;;;;;;;;;;;1033966;28;2078;-58
2022/09/22 01:34:43;;;;;;;;;;;;;;;;;;1033084;28;3995;-60
2022/09/22 01:35:29;;;;;;;;;;;;;;;;;;1033343;28;4200;-57
2022/09/22 01:36:09;;;;;;;;;;;;;;;;;;1032800;28;2863;-55
2022/09/22 01:36:48;;;;;;;;;;;;;;;;;;1028968;28;4969;-57
2022/09/22 01:37:27;;;;;;;;;;;;;;;;;;1029003;28;3990;-57
2022/09/22 01:38:08;;;;;;;;;;;;;;;;;;1028243;28;2189;-59
2022/09/22 01:38:51;;;;;;;;;;;;;;;;;;1033461;28;3806;-60
2022/09/22 01:39:26;;;;;;;;;;;;;;;;;;1032470;28;3906;-58
2022/09/22 01:40:03;;;;;;;;;;;;;;;;;;1033947;28;2376;-58
2022/09/22 01:40:34;;;;;;;;;;;;;;;;;;1033989;28;3982;-58
2022/09/22 01:41:09;;;;;;;;;;;;;;;;;;1033485;28;2190;-58
2022/09/22 01:41:47;;;;;;;;;;;;;;;;;;1032713;28;3946;-56
2022/09/22 01:42:27;;;;;;;;;;;;;;;;;;1033511;28;4107;-57
2022/09/22 01:43:06;;;;;;;;;;;;;;;;;;1034273;28;1732;-60
2022/09/22 01:44:15;;;;;;;;;;;;;;;;;;1031567;28;3891;-56
2022/09/22 01:44:51;;;;;;;;;;;;;;;;;;1021306;29;3816;-56
2022/09/22 01:45:24;;;;;;;;;;;;;;;;;;1019537;28;4085;-58
2022/09/22 01:45:55;;;;;;;;;;;;;;;;;;1021589;29;1631;-58
2022/09/22 01:46:34;;;;;;;;;;;;;;;;;;1020204;28;3953;-58
2022/09/22 01:47:18;;;;;;;;;;;;;;;;;;1021930;29;1666;-58
2022/09/22 01:47:55;;;;;;;;;;;;;;;;;;1021253;29;3856;-55
2022/09/22 01:48:28;;;;;;;;;;;;;;;;;;1020286;29;3911;-55
2022/09/22 01:48:59;;;;;;;;;;;;;;;;;;1021265;29;3348;-58
2022/09/22 01:49:32;;;;;;;;;;;;;;;;;;1017673;29;4120;-57
2022/09/22 01:50:06;;;;;;;;;;;;;;;;;;1015821;28;3203;-56
2022/09/22 01:50:42;;;;;;;;;;;;;;;;;;1020644;28;4032;-62
2022/09/22 01:51:27;;;;;;;;;;;;;;;;;;1031283;28;3900;-60
2022/09/22 01:51:59;;;;;;;;;;;;;;;;;;1032949;28;3058;-57
2022/09/22 01:52:31;;;;;;;;;;;;;;;;;;1032897;28;4066;-62
2022/09/22 01:53:04;;;;;;;;;;;;;;;;;;1033646;28;2602;-57
2022/09/22 01:53:41;;;;;;;;;;;;;;;;;;1033856;28;3918;-61
2022/09/22 01:54:15;;;;;;;;;;;;;;;;;;1032606;28;4167;-60
2022/09/22 01:54:49;;;;;;;;;;;;;;;;;;1032674;28;2543;-58
2022/09/22 01:55:22;;;;;;;;;;;;;;;;;;1032557;28;3967;-54
2022/09/22 01:55:57;;;;;;;;;;;;;;;;;;1032546;28;1689;-56
2022/09/22 01:56:29;;;;;;;;;;;;;;;;;;1032834;28;4070;-56
2022/09/22 01:57:04;;;;;;;;;;;;;;;;;;1034063;28;3348;-55
2022/09/22 01:57:40;;;;;;;;;;;;;;;;;;1033641;28;4246;-58
2022/09/22 01:58:13;;;;;;;;;;;;;;;;;;1033098;28;4092;-59
2022/09/22 01:58:46;;;;;;;;;;;;;;;;;;1033875;28;3062;-57
2022/09/22 01:59:17;;;;;;;;;;;;;;;;;;1031198;28;4476;-58
2022/09/22 01:59:50;;;;;;;;;;;;;;;;;;1033936;28;3135;-54
2022/09/22 02:00:22;;;;;;;;;;;;;;;;;;1031199;28;4071;-54
2022/09/22 02:00:59;;;;;;;;;;;;;;;;;;1033761;28;3142;-61
2022/09/22 02:01:32;;;;;;;;;;;;;;;;;;1033199;28;4077;-59
2022/09/22 02:02:05;;;;;;;;;;;;;;;;;;1034268;28;1703;-55
2022/09/22 02:02:39;;;;;;;;;;;;;;;;;;1033000;28;4056;-57
2022/09/22 02:03:21;;;;;;;;;;;;;;;;;;1033557;28;3923;-59
2022/09/22 02:03:55;;;;;;;;;;;;;;;;;;1033701;28;2003;-60
2022/09/22 02:04:29;;;;;;;;;;;;;;;;;;1033293;28;4062;-57
2022/09/22 02:05:01;;;;;;;;;;;;;;;;;;1034133;28;2974;-60
2022/09/22 02:05:35;;;;;;;;;;;;;;;;;;1026988;28;4148;-57
2022/09/22 02:06:09;;;;;;;;;;;;;;;;;;1029043;28;3192;-58
2022/09/22 02:06:42;;;;;;;;;;;;;;;;;;1026374;28;3723;-58
2022/09/22 02:07:19;;;;;;;;;;;;;;;;;;1031213;28;4099;-56
2022/09/22 02:07:52;;;;;;;;;;;;;;;;;;1034244;28;3568;-58
2022/09/22 02:08:28;;;;;;;;;;;;;;;;;;1031867;28;4108;-59
2022/09/22 02:09:01;;;;;;;;;;;;;;;;;;1033980;28;1852;-57
2022/09/22 02:09:33;;;;;;;;;;;;;;;;;;1033592;28;4137;-61
2022/09/22 02:10:06;;;;;;;;;;;;;;;;;;1034483;28;2294;-60
2022/09/22 02:10:39;;;;;;;;;;;;;;;;;;1032991;28;3930;-60
2022/09/22 02:11:11;;;;;;;;;;;;;;;;;;1029007;28;3939;-56
2022/09/22 02:11:41;;;;;;;;;;;;;;;;;;1030280;28;3539;-58
2022/09/22 02:12:12;;;;;;;;;;;;;;;;;;1028421;28;4238;-60
2022/09/22 02:12:42;;;;;;;;;;;;;;;;;;1029273;28;3291;-57
2022/09/22 02:13:13;;;;;;;;;;;;;;;;;;1033529;28;4127;-60
2022/09/22 02:13:45;;;;;;;;;;;;;;;;;;1032774;28;3074;-58
2022/09/22 02:14:15;;;;;;;;;;;;;;;;;;1033591;28;4256;-55
2022/09/22 02:14:46;;;;;;;;;;;;;;;;;;1033577;28;2005;-58
2022/09/22 02:16:07;;;;;;;;;;;;;;;;;;1032205;28;3518;-58
2022/09/22 02:16:37;;;;;;;;;;;;;;;;;;1033310;28;4227;-58
2022/09/22 02:17:07;;;;;;;;;;;;;;;;;;1033641;28;3331;-59
2022/09/22 02:17:38;;;;;;;;;;;;;;;;;;1029064;28;3883;-59
2022/09/22 02:18:12;;;;;;;;;;;;;;;;;;1028665;28;3091;-54
2022/09/22 02:19:01;;;;;;;;;;;;;;;;;;1029073;28;3850;-58
2022/09/22 02:19:35;;;;;;;;;;;;;;;;;;1032878;28;4408;-54
2022/09/22 02:20:05;;;;;;;;;;;;;;;;;;1033466;28;2013;-57
2022/09/22 02:20:35;;;;;;;;;;;;;;;;;;1033037;28;4056;-59
2022/09/22 02:21:06;;;;;;;;;;;;;;;;;;1033554;28;2730;-60
2022/09/22 02:21:37;;;;;;;;;;;;;;;;;;1033258;28;4110;-58
2022/09/22 02:22:09;;;;;;;;;;;;;;;;;;1033313;28;2950;-58
2022/09/22 02:22:39;;;;;;;;;;;;;;;;;;1034034;28;4305;-56
2022/09/22 02:23:09;;;;;;;;;;;;;;;;;;1030626;28;3949;-54
2022/09/22 02:23:40;;;;;;;;;;;;;;;;;;1034036;28;3075;-62
2022/09/22 02:24:26;;;;;;;;;;;;;;;;;;1033453;28;4422;-56
2022/09/22 02:24:56;;;;;;;;;;;;;;;;;;1034206;28;1481;-57
2022/09/22 02:25:27;;;;;;;;;;;;;;;;;;1032017;28;4149;-57
2022/09/22 02:26:00;;;;;;;;;;;;;;;;;;1034081;28;1628;-58
2022/09/22 02:26:32;;;;;;;;;;;;;;;;;;1033244;28;3797;-57
2022/09/22 02:27:24;;;;;;;;;;;;;;;;;;1033899;28;1630;-60
2022/09/22 02:27:55;;;;;;;;;;;;;;;;;;1033196;28;4017;-60
2022/09/22 02:28:25;;;;;;;;;;;;;;;;;;1033310;28;4061;-58
2022/09/22 02:29:08;;;;;;;;;;;;;;;;;;1034467;28;1858;-61
2022/09/22 02:29:39;;;;;;;;;;;;;;;;;;1032774;28;3875;-61
2022/09/22 02:30:10;;;;;;;;;;;;;;;;;;1033345;28;4069;-60
2022/09/22 02:30:42;;;;;;;;;;;;;;;;;;1033527;28;2888;-58
2022/09/22 02:31:13;;;;;;;;;;;;;;;;;;1033910;28;4075;-60
2022/09/22 02:31:44;;;;;;;;;;;;;;;;;;1033071;28;2177;-59
2022/09/22 02:32:15;;;;;;;;;;;;;;;;;;1032762;28;4191;-56
2022/09/22 02:32:48;;;;;;;;;;;;;;;;;;1033386;28;2267;-58
2022/09/22 02:33:22;;;;;;;;;;;;;;;;;;1028298;28;3904;-56
2022/09/22 02:34:09;;;;;;;;;;;;;;;;;;1026870;28;3032;-58
2022/09/22 02:34:45;;;;;;;;;;;;;;;;;;1023261;28;4151;-62
2022/09/22 02:35:16;;;;;;;;;;;;;;;;;;1024107;28;4078;-53
2022/09/22 02:35:50;;;;;;;;;;;;;;;;;;1025848;28;1684;-56
2022/09/22 02:36:39;;;;;;;;;;;;;;;;;;1026184;28;4078;-61
2022/09/22 02:37:21;;;;;;;;;;;;;;;;;;1031985;28;3018;-59
2022/09/22 02:38:11;;;;;;;;;;;;;;;;;;1033031;28;4268;-52
2022/09/22 02:38:46;;;;;;;;;;;;;;;;;;1029288;28;3972;-56
2022/09/22 02:39:33;;;;;;;;;;;;;;;;;;1029181;28;4110;-60
2022/09/22 02:40:12;;;;;;;;;;;;;;;;;;1028628;28;1570;-60
2022/09/22 02:40:43;;;;;;;;;;;;;;;;;;1033398;28;3727;-56
2022/09/22 02:41:17;;;;;;;;;;;;;;;;;;1033386;28;3938;-60
2022/09/22 02:41:47;;;;;;;;;;;;;;;;;;1034290;28;2308;-58
2022/09/22 02:42:21;;;;;;;;;;;;;;;;;;1032482;28;4154;-53
2022/09/22 02:43:00;;;;;;;;;;;;;;;;;;1033966;28;2211;-56
2022/09/22 02:43:33;;;;;;;;;;;;;;;;;;1032213;28;3914;-60
2022/09/22 02:44:24;;;;;;;;;;;;;;;;;;1034042;28;1666;-58
2022/09/22 02:45:04;;;;;;;;;;;;;;;;;;1033732;28;3661;-57
2022/09/22 02:45:54;;;;;;;;;;;;;;;;;;1033218;28;4090;-58
2022/09/22 02:46:45;;;;;;;;;;;;;;;;;;1032782;28;3899;-57
2022/09/22 02:47:38;;;;;;;;;;;;;;;;;;1029230;28;4192;-56
2022/09/22 02:48:20;;;;;;;;;;;;;;;;;;1029026;28;4065;-61
2022/09/22 02:48:53;;;;;;;;;;;;;;;;;;1029302;28;1847;-57
2022/09/22 02:49:25;;;;;;;;;;;;;;;;;;1029360;28;3904;-58
2022/09/22 02:49:56;;;;;;;;;;;;;;;;;;1030685;28;3199;-56
2022/09/22 02:50:27;;;;;;;;;;;;;;;;;;1032995;28;4063;-54
2022/09/22 02:50:58;;;;;;;;;;;;;;;;;;1029745;28;1764;-56
2022/09/22 02:51:29;;;;;;;;;;;;;;;;;;1030097;28;4266;-58
2022/09/22 02:51:59;;;;;;;;;;;;;;;;;;1029770;28;2377;-59
2022/09/22 02:52:29;;;;;;;;;;;;;;;;;;1029074;28;6373;-60
2022/09/22 02:53:01;;;;;;;;;;;;;;;;;;1033642;28;2788;-57
2022/09/22 02:53:32;;;;;;;;;;;;;;;;;;1032686;28;3848;-57
2022/09/22 02:54:03;;;;;;;;;;;;;;;;;;1033127;28;2836;-54
2022/09/22 02:54:33;;;;;;;;;;;;;;;;;;1032755;28;4094;-56
2022/09/22 02:55:04;;;;;;;;;;;;;;;;;;1033059;28;3210;-57
2022/09/22 02:55:34;;;;;;;;;;;;;;;;;;1033145;28;4111;-60
2022/09/22 02:56:05;;;;;;;;;;;;;;;;;;1033667;28;3147;-56
2022/09/22 02:56:35;;;;;;;;;;;;;;;;;;1033764;28;4014;-60
2022/09/22 02:57:06;;;;;;;;;;;;;;;;;;1033093;28;1714;-60
2022/09/22 02:57:36;;;;;;;;;;;;;;;;;;1032895;28;3987;-57
2022/09/22 02:58:07;;;;;;;;;;;;;;;;;;1033895;28;1935;-59
2022/09/22 02:58:37;;;;;;;;;;;;;;;;;;1033212;28;4068;-57
2022/09/22 02:59:10;;;;;;;;;;;;;;;;;;1029356;28;2663;-59
2022/09/22 02:59:40;;;;;;;;;;;;;;;;;;1027349;28;3836;-56
2022/09/22 03:00:11;;;;;;;;;;;;;;;;;;1031809;28;3931;-57
2022/09/22 03:00:41;;;;;;;;;;;;;;;;;;1031515;28;2671;-59
2022/09/22 03:01:12;;;;;;;;;;;;;;;;;;1032500;28;4234;-59
2022/09/22 03:01:42;;;;;;;;;;;;;;;;;;1032267;28;3184;-56
2022/09/22 03:02:13;;;;;;;;;;;;;;;;;;1032733;28;3916;-57
2022/09/22 03:02:43;;;;;;;;;;;;;;;;;;1032445;28;2635;-60
2022/09/22 03:03:13;;;;;;;;;;;;;;;;;;1032690;28;4060;-59
2022/09/22 03:03:43;;;;;;;;;;;;;;;;;;1032474;28;3300;-56
2022/09/22 03:04:14;;;;;;;;;;;;;;;;;;1031713;28;4180;-57
2022/09/22 03:04:44;;;;;;;;;;;;;;;;;;1033795;28;2454;-58
2022/09/22 03:05:14;;;;;;;;;;;;;;;;;;1033344;28;3922;-56
2022/09/22 03:05:45;;;;;;;;;;;;;;;;;;1032489;28;3175;-57
2022/09/22 03:06:15;;;;;;;;;;;;;;;;;;1028406;28;4064;-57
2022/09/22 03:06:45;;;;;;;;;;;;;;;;;;1028803;28;2565;-59
2022/09/22 03:07:16;;;;;;;;;;;;;;;;;;1032779;28;4133;-56
2022/09/22 03:07:46;;;;;;;;;;;;;;;;;;1032482;28;3113;-58
2022/09/22 03:08:16;;;;;;;;;;;;;;;;;;1033135;28;4464;-58
2022/09/22 03:08:46;;;;;;;;;;;;;;;;;;1028239;28;2308;-56
2022/09/22 03:09:17;;;;;;;;;;;;;;;;;;1029448;28;3882;-59
2022/09/22 03:09:47;;;;;;;;;;;;;;;;;;1028725;28;2979;-58
2022/09/22 03:10:18;;;;;;;;;;;;;;;;;;1029353;28;4171;-59
2022/09/22 03:10:48;;;;;;;;;;;;;;;;;;1033659;28;2200;-60
2022/09/22 03:11:18;;;;;;;;;;;;;;;;;;1033698;28;4089;-58
2022/09/22 03:11:48;;;;;;;;;;;;;;;;;;1033061;28;2877;-57
2022/09/22 03:12:19;;;;;;;;;;;;;;;;;;1033702;28;4069;-58
2022/09/22 03:12:49;;;;;;;;;;;;;;;;;;1033124;28;2274;-57
2022/09/22 03:13:20;;;;;;;;;;;;;;;;;;1033342;28;4140;-58
2022/09/22 03:13:50;;;;;;;;;;;;;;;;;;1029061;28;2253;-57
2022/09/22 03:14:20;;;;;;;;;;;;;;;;;;1028832;28;3959;-60
2022/09/22 03:14:50;;;;;;;;;;;;;;;;;;1029656;28;1716;-58
2022/09/22 03:15:21;;;;;;;;;;;;;;;;;;1027776;28;4116;-59
2022/09/22 03:15:51;;;;;;;;;;;;;;;;;;1034225;28;1737;-56
2022/09/22 03:16:22;;;;;;;;;;;;;;;;;;1033066;28;4198;-59
2022/09/22 03:16:52;;;;;;;;;;;;;;;;;;1029728;28;1523;-59
2022/09/22 03:17:22;;;;;;;;;;;;;;;;;;1028750;28;4081;-59
2022/09/22 03:17:52;;;;;;;;;;;;;;;;;;1029627;28;1989;-59
2022/09/22 03:18:23;;;;;;;;;;;;;;;;;;1028889;28;3916;-59
2022/09/22 03:18:53;;;;;;;;;;;;;;;;;;1032284;28;3139;-58
2022/09/22 03:19:23;;;;;;;;;;;;;;;;;;1033227;28;3825;-60
2022/09/22 03:19:54;;;;;;;;;;;;;;;;;;1034104;28;1846;-60
2022/09/22 03:20:24;;;;;;;;;;;;;;;;;;1033202;28;3908;-55
2022/09/22 03:20:54;;;;;;;;;;;;;;;;;;1034078;28;2215;-56
2022/09/22 03:21:24;;;;;;;;;;;;;;;;;;1032666;28;4168;-58
2022/09/22 03:21:55;;;;;;;;;;;;;;;;;;1034380;28;2265;-58
2022/09/22 03:22:25;;;;;;;;;;;;;;;;;;1032923;28;4175;-61
2022/09/22 03:22:55;;;;;;;;;;;;;;;;;;1033557;28;3157;-58
2022/09/22 03:23:25;;;;;;;;;;;;;;;;;;1033272;28;4116;-58
2022/09/22 03:23:56;;;;;;;;;;;;;;;;;;1034428;28;3459;-57
2022/09/22 03:24:26;;;;;;;;;;;;;;;;;;1034051;28;4106;-60
2022/09/22 03:24:57;;;;;;;;;;;;;;;;;;1034891;28;2943;-58
2022/09/22 03:25:27;;;;;;;;;;;;;;;;;;1033614;28;3912;-56
2022/09/22 03:25:57;;;;;;;;;;;;;;;;;;1034354;28;2176;-56
2022/09/22 03:26:28;;;;;;;;;;;;;;;;;;1033324;28;4087;-57
2022/09/22 03:26:58;;;;;;;;;;;;;;;;;;1033858;28;2295;-55
2022/09/22 03:27:28;;;;;;;;;;;;;;;;;;1034165;28;4132;-57
2022/09/22 03:27:58;;;;;;;;;;;;;;;;;;1033887;28;3321;-58
2022/09/22 03:28:29;;;;;;;;;;;;;;;;;;1032796;28;4116;-59
2022/09/22 03:28:59;;;;;;;;;;;;;;;;;;1034389;28;2219;-56
2022/09/22 03:29:29;;;;;;;;;;;;;;;;;;1032509;28;4106;-56
2022/09/22 03:30:00;;;;;;;;;;;;;;;;;;1033334;28;3048;-59
2022/09/22 03:30:30;;;;;;;;;;;;;;;;;;1031934;28;3869;-59
2022/09/22 03:31:00;;;;;;;;;;;;;;;;;;1034261;28;3071;-59
2022/09/22 03:31:30;;;;;;;;;;;;;;;;;;1032406;28;4078;-56
2022/09/22 03:32:01;;;;;;;;;;;;;;;;;;1034296;28;2066;-60
2022/09/22 03:32:37;;;;;;;;;;;;;;;;;;1032993;28;3927;-59
2022/09/22 03:33:07;;;;;;;;;;;;;;;;;;1034949;28;1734;-57
2022/09/22 03:33:38;;;;;;;;;;;;;;;;;;1030715;28;4195;-58
2022/09/22 03:34:08;;;;;;;;;;;;;;;;;;1033723;28;3260;-55
2022/09/22 03:34:38;;;;;;;;;;;;;;;;;;1032631;28;3880;-60
2022/09/22 03:35:08;;;;;;;;;;;;;;;;;;1033508;28;3347;-60
2022/09/22 03:35:39;;;;;;;;;;;;;;;;;;1031938;28;4007;-59
2022/09/22 03:36:09;;;;;;;;;;;;;;;;;;1032703;28;3902;-59
2022/09/22 03:36:39;;;;;;;;;;;;;;;;;;1031728;28;2787;-56
2022/09/22 03:37:09;;;;;;;;;;;;;;;;;;1033560;28;4146;-58
2022/09/22 03:37:40;;;;;;;;;;;;;;;;;;1034316;28;2667;-57
2022/09/22 03:38:10;;;;;;;;;;;;;;;;;;1031805;28;3996;-57
2022/09/22 03:38:40;;;;;;;;;;;;;;;;;;1033888;28;2623;-58
2022/09/22 03:39:10;;;;;;;;;;;;;;;;;;1032889;28;3940;-56
2022/09/22 03:39:41;;;;;;;;;;;;;;;;;;1034477;28;1459;-56
2022/09/22 03:40:11;;;;;;;;;;;;;;;;;;1032921;28;3809;-57
2022/09/22 03:40:47;;;;;;;;;;;;;;;;;;1035050;28;1652;-57
2022/09/22 03:41:18;;;;;;;;;;;;;;;;;;1033792;28;4114;-59
2022/09/22 03:41:49;;;;;;;;;;;;;;;;;;1034159;28;1851;-60
2022/09/22 03:42:19;;;;;;;;;;;;;;;;;;1033563;28;4118;-55
2022/09/22 03:42:50;;;;;;;;;;;;;;;;;;1032932;28;3180;-61
2022/09/22 03:43:20;;;;;;;;;;;;;;;;;;1033314;28;4135;-59
2022/09/22 03:43:50;;;;;;;;;;;;;;;;;;1035018;28;1656;-58
2022/09/22 03:44:20;;;;;;;;;;;;;;;;;;1033636;28;4121;-57
2022/09/22 03:44:51;;;;;;;;;;;;;;;;;;1029754;28;1601;-60
2022/09/22 03:45:21;;;;;;;;;;;;;;;;;;1028426;28;3930;-57
2022/09/22 03:45:57;;;;;;;;;;;;;;;;;;1029943;28;2019;-56
2022/09/22 03:46:34;;;;;;;;;;;;;;;;;;1029074;28;4088;-53
2022/09/22 03:47:11;;;;;;;;;;;;;;;;;;1034668;28;1659;-57
2022/09/22 03:47:48;;;;;;;;;;;;;;;;;;1033616;28;3853;-57
2022/09/22 03:48:18;;;;;;;;;;;;;;;;;;1033170;28;4140;-57
2022/09/22 03:48:48;;;;;;;;;;;;;;;;;;1033943;28;3035;-58
2022/09/22 03:49:19;;;;;;;;;;;;;;;;;;1032937;28;4104;-58
2022/09/22 03:49:49;;;;;;;;;;;;;;;;;;1034108;28;2569;-60
2022/09/22 03:50:20;;;;;;;;;;;;;;;;;;1033761;28;4948;-56
2022/09/22 03:50:50;;;;;;;;;;;;;;;;;;1033237;28;3105;-56
2022/09/22 03:51:20;;;;;;;;;;;;;;;;;;1033875;28;4067;-58
2022/09/22 03:51:57;;;;;;;;;;;;;;;;;;1034804;28;1926;-58
2022/09/22 03:52:27;;;;;;;;;;;;;;;;;;1034456;28;4089;-60
2022/09/22 03:52:57;;;;;;;;;;;;;;;;;;1034058;28;2202;-53
2022/09/22 03:53:28;;;;;;;;;;;;;;;;;;1034035;28;3904;-56